Time;durP1;ratioP1;P1;durP2;ratioP2;P2;SDS_P1;SDS_P2;PMS_P1;PMS_P2;Temp;Humidity;BMP_temperature;BMP_pressure;BME280_temperature;BME280_humidity;BME280_pressure;Samples;Min_cycle;Max_cycle;Signal;HPM_P1;HPM_P2
2021/10/29 00:00:40;;;;;;;11.70;6.55;;;;;;;5.85;100.00;95580.06;10431262;28;20021;-72
2021/10/29 00:05:41;;;;;;;17.33;7.75;;;;;;;5.79;100.00;95574.59;10430175;28;20017;-72
2021/10/29 00:10:42;;;;;;;14.23;7.75;;;;;;;5.70;100.00;95559.09;10430131;28;20036;-72
2021/10/29 00:15:43;;;;;;;13.18;7.40;;;;;;;5.73;100.00;95558.66;10449386;28;20025;-70
2021/10/29 00:20:43;;;;;;;10.93;6.47;;;;;;;5.72;100.00;95555.19;10471039;28;20021;-70
2021/10/29 00:25:44;;;;;;;13.80;8.27;;;;;;;5.71;100.00;95558.06;10471176;28;20401;-71
2021/10/29 00:30:44;;;;;;;10.95;6.20;;;;;;;5.54;100.00;95563.16;10471018;28;20068;-70
2021/10/29 00:35:45;;;;;;;14.45;7.55;;;;;;;5.43;100.00;95565.53;10470414;28;20600;-71
2021/10/29 00:40:45;;;;;;;22.42;6.60;;;;;;;5.26;100.00;95569.78;10470249;28;20020;-71
2021/10/29 00:45:47;;;;;;;13.10;6.28;;;;;;;5.32;100.00;95560.91;10470031;28;20039;-72
2021/10/29 00:50:48;;;;;;;16.38;6.97;;;;;;;5.26;100.00;95559.09;10470131;28;20160;-71
2021/10/29 00:55:49;;;;;;;14.18;6.93;;;;;;;5.27;100.00;95544.75;10453018;28;20039;-71
2021/10/29 01:00:49;;;;;;;11.23;6.60;;;;;;;5.30;100.00;95541.66;10469874;28;20486;-71
2021/10/29 01:05:50;;;;;;;12.75;6.95;;;;;;;5.12;100.00;95539.75;10458910;28;20090;-70
2021/10/29 01:10:50;;;;;;;17.85;7.55;;;;;;;5.10;100.00;95531.19;10466712;28;20016;-70
2021/10/29 01:15:50;;;;;;;11.43;6.78;;;;;;;4.98;100.00;95520.41;10487446;28;20032;-70
2021/10/29 01:20:51;;;;;;;11.40;5.93;;;;;;;4.80;100.00;95521.19;10469086;28;20017;-70
2021/10/29 01:26:02;;;;;;;12.47;6.77;;;;;;;4.69;100.00;95519.22;10468792;28;20032;-71
2021/10/29 01:31:04;;;;;;;15.32;7.07;;;;;;;4.61;100.00;95510.47;10468992;28;20298;-70
2021/10/29 01:36:05;;;;;;;12.90;6.28;;;;;;;4.71;100.00;95509.19;10468812;28;20029;-70
2021/10/29 01:41:07;;;;;;;13.40;6.90;;;;;;;4.82;100.00;95505.00;10482176;28;20021;-70
2021/10/29 01:46:08;;;;;;;18.40;8.15;;;;;;;4.90;100.00;95513.53;10476369;28;20032;-70
2021/10/29 01:51:09;;;;;;;19.48;8.27;;;;;;;5.02;100.00;95520.81;10486181;28;20464;-71
2021/10/29 01:56:10;;;;;;;15.20;7.55;;;;;;;4.96;100.00;95531.28;10468462;28;20024;-71
2021/10/29 02:01:11;;;;;;;15.55;7.55;;;;;;;4.80;100.00;95539.84;10468564;28;20504;-71
2021/10/29 02:06:11;;;;;;;15.83;8.00;;;;;;;4.72;100.00;95540.09;10469132;28;20021;-70
2021/10/29 02:11:12;;;;;;;14.90;6.95;;;;;;;4.68;100.00;95525.59;10468229;28;20266;-71
2021/10/29 02:16:12;;;;;;;15.38;8.30;;;;;;;4.66;100.00;95522.31;10467958;28;20031;-70
2021/10/29 02:21:13;;;;;;;14.98;8.02;;;;;;;4.61;100.00;95518.44;10456354;28;20024;-71
2021/10/29 02:26:13;;;;;;;14.67;8.67;;;;;;;4.71;100.00;95514.50;10468180;28;20044;-71
2021/10/29 02:31:14;;;;;;;18.10;9.23;;;;;;;4.67;100.00;95511.44;10467852;28;20298;-73
2021/10/29 02:36:14;;;;;;;20.05;9.02;;;;;;;4.72;100.00;95506.28;10467309;28;20021;-70
2021/10/29 02:41:15;;;;;;;20.88;8.70;;;;;;;4.65;100.00;95504.69;10467389;28;20020;-71
2021/10/29 02:46:16;;;;;;;19.77;9.32;;;;;;;4.61;100.00;95505.13;10467160;28;20501;-71
2021/10/29 02:51:17;;;;;;;21.88;9.13;;;;;;;4.64;100.00;95500.44;10466937;28;20040;-70
2021/10/29 02:56:17;;;;;;;13.90;6.90;;;;;;;4.51;100.00;95510.13;10486775;28;20523;-71
2021/10/29 03:01:18;;;;;;;17.40;9.43;;;;;;;4.34;100.00;95524.97;10474418;28;20012;-71
2021/10/29 03:06:18;;;;;;;15.73;8.55;;;;;;;4.26;100.00;95523.41;10444105;28;20789;-72
2021/10/29 03:11:19;;;;;;;21.20;9.05;;;;;;;4.26;100.00;95529.53;10474076;28;20035;-75
2021/10/29 03:16:19;;;;;;;20.27;10.23;;;;;;;4.32;100.00;95529.72;10474050;28;20028;-72
2021/10/29 03:21:19;;;;;;;17.90;10.77;;;;;;;4.35;100.00;95530.09;10458625;28;20658;-72
2021/10/29 03:26:20;;;;;;;21.67;9.98;;;;;;;4.36;100.00;95522.94;10433199;28;20287;-71
2021/10/29 03:31:20;;;;;;;17.42;9.85;;;;;;;4.30;100.00;95529.09;10448953;28;20036;-76
2021/10/29 03:36:21;;;;;;;17.08;8.77;;;;;;;4.33;100.00;95526.03;10431397;28;20513;-71
2021/10/29 03:41:23;;;;;;;18.33;8.93;;;;;;;4.38;100.00;95511.06;10444116;28;20020;-72
2021/10/29 03:46:26;;;;;;;14.48;8.55;;;;;;;4.31;100.00;95520.09;10427755;28;20021;-71
2021/10/29 03:52:15;;;;;;;18.88;9.52;;;;;;;4.39;100.00;95520.66;10411700;28;20483;-72
2021/10/29 03:56:58;;;;;;;19.35;9.05;;;;;;;4.31;100.00;95520.09;10434435;28;20082;-76
2021/10/29 04:01:58;;;;;;;25.27;10.45;;;;;;;4.26;100.00;95520.75;10430987;28;20048;-72
2021/10/29 04:06:59;;;;;;;15.38;9.30;;;;;;;4.32;100.00;95521.72;10430112;28;20563;-72
2021/10/29 04:11:59;;;;;;;20.40;11.02;;;;;;;4.25;100.00;95522.56;10430326;28;20063;-70
2021/10/29 04:17:00;;;;;;;19.80;9.88;;;;;;;4.24;100.00;95522.78;10429696;28;20116;-72
2021/10/29 04:22:00;;;;;;;24.42;12.32;;;;;;;4.26;100.00;95523.41;10454194;28;20021;-75
2021/10/29 04:27:02;;;;;;;26.02;11.15;;;;;;;4.28;100.00;95516.84;10487555;28;20024;-72
2021/10/29 04:32:03;;;;;;;24.35;13.18;;;;;;;4.31;100.00;95518.22;10445662;28;20055;-72
2021/10/29 04:37:04;;;;;;;24.38;10.80;;;;;;;4.29;100.00;95504.34;10483787;28;20446;-71
2021/10/29 04:42:05;;;;;;;21.02;11.00;;;;;;;4.35;100.00;95505.31;10453886;28;20081;-72
2021/10/29 04:47:05;;;;;;;15.80;10.50;;;;;;;4.25;100.00;95497.81;10442620;28;20021;-72
2021/10/29 04:52:06;;;;;;;21.63;12.37;;;;;;;4.15;100.00;95495.63;10444952;28;20041;-73
2021/10/29 04:57:06;;;;;;;24.75;11.02;;;;;;;4.15;100.00;95500.94;10395585;28;20710;-72
2021/10/29 05:02:07;;;;;;;23.58;11.88;;;;;;;4.21;100.00;95510.72;10444615;28;20017;-72
2021/10/29 05:07:08;;;;;;;25.48;11.63;;;;;;;4.18;100.00;95511.16;10444764;28;20052;-72
2021/10/29 05:12:08;;;;;;;24.50;10.23;;;;;;;4.15;100.00;95519.56;10427757;28;20102;-72
2021/10/29 05:17:09;;;;;;;21.38;10.73;;;;;;;4.10;100.00;95517.56;10443710;28;20459;-72
2021/10/29 05:22:10;;;;;;;23.50;11.80;;;;;;;4.02;100.00;95523.13;10427199;28;20113;-72
2021/10/29 05:27:10;;;;;;;28.55;11.38;;;;;;;4.12;100.00;95527.97;10443891;28;20164;-72
2021/10/29 05:32:10;;;;;;;21.90;11.47;;;;;;;4.27;100.00;95528.50;10428276;28;20414;-71
2021/10/29 05:37:11;;;;;;;23.48;11.95;;;;;;;4.41;100.00;95536.41;10466111;28;20277;-73
2021/10/29 05:42:11;;;;;;;22.02;11.88;;;;;;;4.51;100.00;95534.09;10466264;28;20050;-74
2021/10/29 05:47:12;;;;;;;23.77;13.52;;;;;;;4.38;100.00;95543.00;10467073;28;20032;-72
2021/10/29 05:52:21;;;;;;;28.95;11.45;;;;;;;4.35;100.00;95550.56;10467558;28;20086;-74
2021/10/29 05:57:23;;;;;;;;;;;;;;;4.28;100.00;95553.25;10468286;28;20097;-72
2021/10/29 06:02:24;;;;;;;29.02;13.27;;;;;;;4.36;100.00;95555.69;10468039;28;20457;-72
2021/10/29 06:07:24;;;;;;;29.23;13.73;;;;;;;4.50;100.00;95559.06;10484916;28;20044;-72
2021/10/29 06:12:25;;;;;;;26.58;12.43;;;;;;;4.68;100.00;95554.88;10484883;28;20082;-74
2021/10/29 06:17:27;;;;;;;23.98;11.30;;;;;;;4.97;100.00;95551.56;10466609;28;20453;-73
2021/10/29 06:22:31;;;;;;;26.15;13.35;;;;;;;5.25;100.00;95563.63;10467608;28;20435;-73
2021/10/29 06:32:36;;;;;;;18.25;10.27;;;;;;;5.65;100.00;95563.25;10447772;28;20025;-71
2021/10/29 06:37:37;;;;;;;25.13;11.45;;;;;;;5.93;100.00;95558.41;10433824;28;20032;-74
2021/10/29 06:42:38;;;;;;;24.63;10.38;;;;;;;7.16;100.00;95561.66;10435288;28;20032;-77
2021/10/29 07:03:46;;;;;;;22.40;10.40;;;;;;;8.64;100.00;95550.84;10452893;28;20037;-72
2021/10/29 07:40:45;;;;;;;21.77;10.88;;;;;;;9.15;100.00;95540.16;10489979;28;20029;-71
2021/10/29 07:45:45;;;;;;;21.42;10.15;;;;;;;9.71;100.00;95537.50;10451183;28;20049;-71
2021/10/29 07:50:46;;;;;;;26.95;11.68;;;;;;;10.25;100.00;95539.53;10447166;28;20025;-70
2021/10/29 07:55:47;;;;;;;20.02;9.43;;;;;;;10.75;100.00;95535.78;10430184;28;20087;-72
2021/10/29 08:00:48;;;;;;;20.85;9.73;;;;;;;11.04;100.00;95540.91;10485641;28;20548;-72
2021/10/29 08:05:48;;;;;;;12.13;7.00;;;;;;;11.42;100.00;95538.22;10489239;28;20085;-72
2021/10/29 08:10:49;;;;;;;22.50;8.43;;;;;;;11.62;100.00;95534.84;10470665;28;20033;-72
2021/10/29 08:15:54;;;;;;;14.68;8.07;;;;;;;12.35;97.16;95522.56;10470572;28;20032;-71
2021/10/29 08:20:55;;;;;;;18.95;7.65;;;;;;;12.56;95.04;95520.72;10470838;28;20142;-71
2021/10/29 08:25:56;;;;;;;17.25;7.30;;;;;;;11.89;96.45;95523.16;10470956;28;20063;-72
2021/10/29 08:31:00;;;;;;;17.55;8.10;;;;;;;12.26;100.00;95516.88;10444891;28;20056;-73
2021/10/29 08:36:02;;;;;;;15.27;7.32;;;;;;;12.58;92.96;95516.69;10445560;28;20032;-72
2021/10/29 08:41:03;;;;;;;16.88;6.78;;;;;;;12.29;92.36;95501.00;10469557;28;20033;-72
2021/10/29 08:46:04;;;;;;;13.65;6.85;;;;;;;12.39;93.33;95505.63;10427816;28;20356;-78
2021/10/29 08:51:05;;;;;;;14.40;6.97;;;;;;;12.43;91.08;95503.19;10428057;28;20450;-74
2021/10/29 08:56:06;;;;;;;12.20;6.25;;;;;;;13.09;83.63;95498.94;10427778;28;20025;-73
2021/10/29 09:01:12;;;;;;;14.75;5.97;;;;;;;13.63;76.27;95498.41;10476348;28;20166;-74
2021/10/29 09:06:33;;;;;;;11.80;6.38;;;;;;;13.86;75.06;95493.47;10469274;28;20024;-73
2021/10/29 09:11:55;;;;;;;16.30;5.50;;;;;;;14.95;64.91;95485.63;10487163;28;20039;-75
2021/10/29 09:33:01;;;;;;;9.98;4.30;;;;;;;20.68;40.93;95460.38;10435671;28;20040;-74
2021/10/29 09:38:06;;;;;;;9.95;4.85;;;;;;;21.23;39.40;95446.06;10447989;28;20719;-72
2021/10/29 09:43:14;;;;;;;9.98;4.75;;;;;;;21.67;37.29;95444.06;10444215;28;20434;-75
2021/10/29 09:48:21;;;;;;;7.18;4.20;;;;;;;23.15;34.59;95435.31;10443281;28;20017;-73
2021/10/29 09:58:36;;;;;;;7.97;3.80;;;;;;;25.20;30.99;95424.56;10474835;28;20089;-77
2021/10/29 10:03:41;;;;;;;6.85;3.83;;;;;;;26.63;27.73;95409.28;10466231;28;20307;-75
2021/10/29 10:08:42;;;;;;;6.10;3.13;;;;;;;26.47;27.35;95404.63;10423892;28;20855;-71
2021/10/29 10:13:43;;;;;;;6.78;2.80;;;;;;;27.08;27.15;95400.38;10416753;28;20044;-72
2021/10/29 10:18:44;;;;;;;7.78;2.92;;;;;;;29.53;24.47;95389.56;10490141;28;20036;-72
2021/10/29 10:23:48;;;;;;;5.50;3.03;;;;;;;27.95;24.05;95391.75;10492118;28;20036;-73
2021/10/29 10:45:11;;;;;;;5.20;2.72;;;;;;;28.78;21.32;95362.59;10487402;28;20036;-73
2021/10/29 10:50:35;;;;;;;8.95;7.85;;;;;;;28.92;20.07;95355.63;10453868;28;20509;-75
2021/10/29 10:55:56;;;;;;;3.28;2.10;;;;;;;28.03;20.17;95367.81;10458189;28;20043;-73
2021/10/29 11:01:46;;;;;;;9.52;8.75;;;;;;;27.43;20.77;95347.09;10448787;28;20027;-76
2021/10/29 11:06:59;;;;;;;5.05;2.72;;;;;;;27.14;20.61;95339.41;10483402;28;20502;-79
2021/10/29 11:12:00;;;;;;;3.55;1.70;;;;;;;26.04;21.43;95338.28;10444806;28;20021;-76
2021/10/29 11:17:01;;;;;;;2.97;1.65;;;;;;;25.71;21.24;95328.44;10428008;28;20051;-77
2021/10/29 11:22:02;;;;;;;6.22;2.25;;;;;;;24.73;21.68;95336.09;10428200;28;20048;-72
2021/10/29 11:27:14;;;;;;;7.47;2.83;;;;;;;22.46;23.06;95333.34;10424005;28;1145066;-77
2021/10/29 11:32:24;;;;;;;7.25;2.70;;;;;;;20.45;24.99;95330.22;10448557;28;20459;-76
2021/10/29 11:37:25;;;;;;;3.75;1.70;;;;;;;18.38;27.18;95342.34;10430679;28;20044;-74
2021/10/29 11:42:28;;;;;;;8.88;2.20;;;;;;;17.03;27.88;95329.84;10447602;28;20403;-75
2021/10/29 11:47:30;;;;;;;7.35;2.30;;;;;;;16.40;30.48;95317.59;10430309;28;20586;-74
2021/10/29 11:52:30;;;;;;;4.97;2.60;;;;;;;15.97;30.16;95315.78;10455591;28;20407;-75
2021/10/29 11:57:46;;;;;;;2.35;1.88;;;;;;;15.66;31.14;95327.03;10445838;28;20101;-77
2021/10/29 12:08:09;;;;;;;3.75;2.30;;;;;;;15.41;30.65;95319.22;10448644;28;20025;-78
2021/10/29 12:13:10;;;;;;;3.25;1.90;;;;;;;15.33;30.78;95317.94;10469373;28;20028;-76
2021/10/29 12:18:13;;;;;;;3.15;1.90;;;;;;;15.07;31.11;95315.53;10484113;28;20025;-76
2021/10/29 12:23:23;;;;;;;3.10;1.80;;;;;;;15.16;30.90;95304.88;10445175;28;20028;-74
2021/10/29 13:05:32;;;;;;;24.35;10.45;;;;;;;14.66;30.65;95321.34;10406056;28;20460;-71
2021/10/29 13:10:33;;;;;;;12.30;6.25;;;;;;;14.62;30.46;95306.75;10412465;28;20033;-73
2021/10/29 13:15:33;;;;;;;3.93;1.80;;;;;;;14.49;30.54;95308.22;10419170;28;20024;-72
2021/10/29 13:52:43;;;;;;;7.40;3.85;;;;;;;14.00;34.66;95304.53;10414283;28;20029;-73
2021/10/29 14:28:08;;;;;;;17.45;8.70;;;;;;;13.66;35.13;95303.38;10444263;28;20021;-74
2021/10/29 14:35:21;;;;;;;23.90;11.15;;;;;;;13.33;34.97;95300.25;10410503;28;20036;-70
2021/10/29 14:45:41;;;;;;;70.13;29.65;;;;;;;12.95;35.50;95307.16;10403552;28;20024;-71
2021/10/29 15:01:36;;;;;;;54.75;22.38;;;;;;;12.68;36.23;95316.34;10395320;28;20041;-72
2021/10/29 15:27:26;;;;;;;7.82;3.55;;;;;;;11.98;36.97;95333.03;10408662;28;20025;-72
2021/10/29 15:48:29;;;;;;;6.55;3.45;;;;;;;11.59;36.78;95336.16;10447680;28;20091;-74
2021/10/29 15:53:29;;;;;;;4.97;2.95;;;;;;;11.50;36.27;95337.72;10463566;28;20663;-74
2021/10/29 16:19:24;;;;;;;11.20;4.72;;;;;;;11.00;37.83;95351.50;10462759;28;20028;-74
2021/10/29 16:24:25;;;;;;;6.82;3.70;;;;;;;11.03;38.28;95350.97;10464625;28;20028;-74
2021/10/29 16:29:26;;;;;;;9.43;4.47;;;;;;;10.92;38.61;95358.16;10417478;28;20399;-74
2021/10/29 16:34:26;;;;;;;10.13;4.03;;;;;;;10.82;39.06;95366.19;10443847;28;20044;-77
2021/10/29 16:39:27;;;;;;;9.70;4.30;;;;;;;10.81;39.20;95369.13;10441809;28;20410;-78
2021/10/29 16:44:28;;;;;;;6.85;3.25;;;;;;;10.64;39.33;95363.91;10442359;28;20272;-74
2021/10/29 16:49:28;;;;;;;12.00;4.50;;;;;;;10.53;39.58;95373.78;10408709;28;20055;-75
2021/10/29 16:54:28;;;;;;;10.90;4.53;;;;;;;10.33;40.62;95377.09;10468555;28;20286;-76
2021/10/29 16:59:29;;;;;;;11.32;4.10;;;;;;;10.24;40.50;95374.03;10465660;28;20032;-74
2021/10/29 17:04:29;;;;;;;8.90;3.93;;;;;;;10.13;40.67;95381.19;10484001;28;20090;-75
2021/10/29 17:09:30;;;;;;;11.37;4.13;;;;;;;10.15;41.02;95383.63;10463156;28;20319;-77
2021/10/29 17:14:31;;;;;;;11.32;4.50;;;;;;;9.98;41.43;95387.22;10423479;28;20678;-75
2021/10/29 17:19:31;;;;;;;11.98;5.53;;;;;;;9.96;41.38;95391.22;10441665;28;20533;-75
2021/10/29 17:24:32;;;;;;;12.05;4.32;;;;;;;9.94;41.66;95394.16;10458177;28;20063;-73
2021/10/29 17:29:33;;;;;;;17.00;11.05;;;;;;;9.87;42.19;95399.72;10464462;28;20047;-77
2021/10/29 17:34:34;;;;;;;7.68;3.25;;;;;;;9.84;42.80;95399.44;10464619;28;20032;-77
2021/10/29 17:39:35;;;;;;;5.33;3.13;;;;;;;9.77;43.34;95404.16;10464138;28;20025;-72
2021/10/29 17:44:35;;;;;;;7.88;3.55;;;;;;;9.74;43.72;95403.63;10446942;28;20274;-77
2021/10/29 17:49:38;;;;;;;8.00;3.72;;;;;;;9.71;44.05;95412.19;10464933;28;20642;-76
2021/10/29 17:54:42;;;;;;;6.88;4.22;;;;;;;9.54;45.11;95411.41;10439240;28;20477;-76
2021/10/29 17:59:42;;;;;;;9.85;3.80;;;;;;;9.25;45.92;95414.25;10440022;28;20172;-75
2021/10/29 18:04:42;;;;;;;12.30;5.03;;;;;;;9.27;46.91;95406.00;10423435;28;20036;-75
2021/10/29 18:09:43;;;;;;;13.10;6.00;;;;;;;9.26;48.35;95412.41;10437528;28;20052;-74
2021/10/29 18:14:44;;;;;;;15.38;4.80;;;;;;;9.14;50.02;95409.81;10437584;28;20467;-73
2021/10/29 18:19:45;;;;;;;13.70;5.15;;;;;;;9.11;51.33;95413.00;10438095;28;20128;-73
2021/10/29 18:24:46;;;;;;;12.57;5.45;;;;;;;9.03;53.41;95406.19;10436624;28;20029;-70
2021/10/29 18:29:49;;;;;;;11.20;4.88;;;;;;;9.05;53.99;95410.22;10442464;28;20037;-75
2021/10/29 18:34:51;;;;;;;12.20;5.65;;;;;;;8.93;57.89;95406.88;10468653;28;20902;-71
2021/10/29 18:39:53;;;;;;;11.20;4.90;;;;;;;8.92;60.10;95425.84;10488210;28;20017;-75
2021/10/29 18:44:54;;;;;;;11.07;5.05;;;;;;;8.83;60.28;95422.78;10469142;28;20048;-74
2021/10/29 18:49:54;;;;;;;11.30;4.93;;;;;;;8.73;60.78;95423.44;10469547;28;20329;-73
2021/10/29 18:54:55;;;;;;;9.95;4.78;;;;;;;8.73;61.29;95431.47;10444629;28;20033;-71
2021/10/29 18:59:56;;;;;;;19.97;6.17;;;;;;;8.60;68.62;95432.63;10443544;28;20113;-71
2021/10/29 19:04:57;;;;;;;7.72;4.55;;;;;;;8.47;74.28;95439.09;10444079;28;20271;-73
2021/10/29 19:09:57;;;;;;;9.25;5.82;;;;;;;8.24;77.70;95437.34;10445554;28;20039;-70
2021/10/29 19:14:57;;;;;;;7.25;4.25;;;;;;;8.17;78.43;95445.50;10443595;28;20031;-71
2021/10/29 19:19:58;;;;;;;10.73;5.82;;;;;;;8.15;81.43;95446.78;10444768;28;20109;-72
2021/10/29 19:24:59;;;;;;;9.65;5.03;;;;;;;8.14;82.84;95447.88;10443239;28;20116;-75
2021/10/29 19:30:00;;;;;;;11.70;5.65;;;;;;;8.07;83.70;95450.69;10442667;28;20048;-73
2021/10/29 19:35:07;;;;;;;10.90;5.20;;;;;;;8.02;84.95;95451.41;10461160;28;20028;-76
2021/10/29 19:40:23;;;;;;;10.15;5.57;;;;;;;8.02;83.10;95462.13;10509600;23;20045;-76
2021/10/29 19:45:24;;;;;;;9.20;4.82;;;;;;;7.78;88.80;95465.91;10421681;28;20025;-75
2021/10/29 19:50:25;;;;;;;7.97;4.18;;;;;;;7.84;88.23;95472.97;10427694;28;20466;-71
2021/10/29 19:55:29;;;;;;;8.10;3.92;;;;;;;7.87;84.01;95475.22;10468988;28;20036;-71
2021/10/29 20:00:29;;;;;;;11.95;4.35;;;;;;;7.80;83.23;95486.03;10452423;28;20501;-75
2021/10/29 20:05:30;;;;;;;5.53;3.63;;;;;;;7.64;85.40;95484.91;10467414;28;20100;-74
2021/10/29 20:10:32;;;;;;;9.48;4.88;;;;;;;7.56;88.53;95487.94;10467288;28;20028;-74
2021/10/29 20:15:35;;;;;;;7.13;4.35;;;;;;;7.53;88.01;95491.09;10468215;28;20455;-70
2021/10/29 20:20:38;;;;;;;8.65;4.35;;;;;;;7.31;87.11;95506.91;10462455;28;20064;-75
2021/10/29 20:25:39;;;;;;;10.43;4.60;;;;;;;7.07;89.21;95493.56;10463325;28;20060;-70
2021/10/29 20:30:39;;;;;;;6.03;4.00;;;;;;;6.97;91.05;95494.13;10467825;28;20489;-73
2021/10/29 20:35:40;;;;;;;6.95;4.15;;;;;;;6.91;93.10;95496.94;10441519;28;20033;-72
2021/10/29 20:40:41;;;;;;;11.95;5.63;;;;;;;6.72;96.08;95490.84;10442856;28;20048;-73
2021/10/29 20:45:43;;;;;;;19.23;5.47;;;;;;;6.64;98.11;95500.84;10425793;28;20139;-68
2021/10/29 20:50:44;;;;;;;6.63;3.95;;;;;;;6.67;99.56;95495.03;10425111;28;20593;-68
2021/10/29 20:55:44;;;;;;;6.57;4.05;;;;;;;6.64;100.00;95498.16;10436780;28;20086;-72
2021/10/29 21:00:45;;;;;;;7.35;4.35;;;;;;;6.70;100.00;95484.91;10426514;28;20025;-70
2021/10/29 21:05:45;;;;;;;8.02;5.35;;;;;;;6.77;100.00;95485.66;10424397;28;20029;-74
2021/10/29 21:10:46;;;;;;;9.52;4.70;;;;;;;6.78;100.00;95477.41;10458525;28;20488;-74
2021/10/29 21:15:46;;;;;;;13.43;5.13;;;;;;;6.74;100.00;95472.72;10441613;28;20115;-70
2021/10/29 21:20:47;;;;;;;14.15;8.05;;;;;;;6.79;100.00;95472.84;10451261;28;20028;-76
2021/10/29 21:25:47;;;;;;;10.77;5.78;;;;;;;6.75;100.00;95472.50;10483223;28;20055;-74
2021/10/29 21:30:47;;;;;;;14.50;5.20;;;;;;;6.80;100.00;95479.84;10484092;28;20029;-74
2021/10/29 21:35:48;;;;;;;12.20;5.07;;;;;;;6.76;100.00;95467.97;10464798;28;20407;-70
2021/10/29 21:40:49;;;;;;;12.80;5.87;;;;;;;6.60;100.00;95488.16;10465481;28;20063;-70
2021/10/29 21:45:49;;;;;;;13.30;6.20;;;;;;;6.57;100.00;95483.28;10449102;28;20294;-74
2021/10/29 21:50:50;;;;;;;10.90;5.32;;;;;;;6.43;100.00;95483.50;10482656;28;20036;-69
2021/10/29 21:55:50;;;;;;;13.43;5.57;;;;;;;6.29;100.00;95485.53;10482607;28;20067;-70
2021/10/29 22:00:51;;;;;;;12.13;5.50;;;;;;;6.20;100.00;95478.88;10466266;28;20036;-75
2021/10/29 22:05:53;;;;;;;12.50;5.97;;;;;;;5.95;100.00;95482.47;10491118;28;20066;-74
2021/10/29 22:10:53;;;;;;;9.55;5.50;;;;;;;5.97;100.00;95483.09;10477039;28;20031;-70
2021/10/29 22:15:53;;;;;;;11.13;6.07;;;;;;;5.78;100.00;95492.94;10473320;28;20032;-70
2021/10/29 22:20:55;;;;;;;10.57;5.78;;;;;;;5.72;100.00;95488.50;10472293;28;20337;-71
2021/10/29 22:25:59;;;;;;;12.18;5.72;;;;;;;5.72;100.00;95482.34;10472651;28;20118;-74
2021/10/29 22:31:00;;;;;;;13.63;6.90;;;;;;;5.64;100.00;95494.13;10440603;28;20035;-71
2021/10/29 22:36:01;;;;;;;17.65;6.97;;;;;;;5.51;100.00;95499.63;10465005;28;20073;-75
2021/10/29 22:41:02;;;;;;;13.90;6.00;;;;;;;5.38;100.00;95489.91;10455329;28;20092;-74
2021/10/29 22:46:02;;;;;;;17.85;7.75;;;;;;;5.45;100.00;95494.13;10462996;28;20076;-74
2021/10/29 22:51:03;;;;;;;20.03;8.70;;;;;;;5.48;100.00;95487.53;10470785;28;20029;-73
2021/10/29 22:56:08;;;;;;;15.90;7.43;;;;;;;5.46;100.00;95494.97;10471434;28;20282;-71
2021/10/29 23:01:09;;;;;;;17.90;8.05;;;;;;;5.42;100.00;95504.44;10488840;28;20287;-69
2021/10/29 23:06:10;;;;;;;19.88;7.22;;;;;;;5.48;100.00;95499.03;10470873;28;20028;-76
2021/10/29 23:11:10;;;;;;;16.55;10.73;;;;;;;5.51;100.00;95507.59;10488257;28;20044;-70
2021/10/29 23:16:11;;;;;;;18.23;8.15;;;;;;;5.67;100.00;95501.69;10453294;28;20028;-71
2021/10/29 23:21:11;;;;;;;17.08;8.00;;;;;;;5.80;100.00;95500.72;10467713;28;20028;-74
2021/10/29 23:26:12;;;;;;;17.02;8.02;;;;;;;6.01;100.00;95501.31;10446385;28;20495;-69
2021/10/29 23:31:13;;;;;;;16.95;9.45;;;;;;;6.13;100.00;95510.19;10445861;28;20502;-72
2021/10/29 23:36:13;;;;;;;17.35;8.48;;;;;;;6.26;100.00;95499.31;10444930;28;20044;-69
2021/10/29 23:41:13;;;;;;;18.73;9.02;;;;;;;6.38;100.00;95501.22;10447766;28;20442;-72
2021/10/29 23:46:14;;;;;;;18.98;9.88;;;;;;;6.52;100.00;95497.31;10488137;28;20040;-70
2021/10/29 23:51:15;;;;;;;20.70;10.73;;;;;;;6.74;100.00;95499.44;10436280;28;20107;-73
2021/10/29 23:56:15;;;;;;;22.48;11.68;;;;;;;6.95;100.00;95511.44;10445230;28;20029;-78
